Seavoyager — 9HUM8 — position and weather

sailwx.info

Track history (hours):
 
Tides and Currents Weather Stations Pressure Air Temp Water Temp Dewpoint Dewpoint Depression Visibility Wind Speed Wind Dir Waves Ship Positions

Seavoyager

Last reported at 2017-Jan-20 11:05 UTC. Time now 2017-Jan-22 06:04 UTC.
Position N 36°08' E 014°50'.

Length 273 m; draft 16.8 m.

Type: Tanker. MMSI: 256439000.

Date/timePositionNaut miles runAvg speedWind from/ knotsBaromVisibWave heightAir tempDewpointWater temp
2017-Jan-20 11:05N 36°08' E 014°50'612.1
2017-Jan-20 10:33N 36°10' E 014°43'1212.2
2017-Jan-20 09:33N 36°15' E 014°28'1212.0
2017-Jan-20 08:33N 36°19' E 014°15'1212.4
2017-Jan-20 07:33N 36°24' E 014°01'1312.7
2017-Jan-20 06:31N 36°29' E 013°45'29112.6
2017-Jan-19 07:33N 37°40' E 007°52'1312.9
2017-Jan-19 06:33N 37°38' E 007°37'1312.7
2017-Jan-19 05:33N 37°35' E 007°21'  
2017-Jan-17 01:29N 36°00' W 005°10'1313.9
2017-Jan-17 00:33N 35°58' W 005°25'1613.0
2017-Jan-16 23:20N 35°55' W 005°44'26511.1
2017-Jan-15 23:33N 38°34' W 010°10'1413.3
2017-Jan-15 22:29N 38°48' W 010°12'  
2017-Jan-13 03:32N 50°09' W 002°04'1515.0
2017-Jan-13 02:33N 50°12' W 001°42'1515.1
2017-Jan-13 01:33N 50°16' W 001°19'3812.4
2017-Jan-12 22:32N 50°26' W 000°22'10 9.8
2017-Jan-12 21:33N 50°28' W 000°07'9 9.1
2017-Jan-12 20:33N 50°31' E 000°06'9 9.5
2017-Jan-12 19:33N 50°34' E 000°21'1211.6
2017-Jan-12 18:33N 50°37' E 000°38'1413.7
2017-Jan-12 17:33N 50°45' E 000°56'1313.5
2017-Jan-12 16:33N 50°53' E 001°14'1312.9
2017-Jan-12 15:33N 51°02' E 001°27'1211.8
2017-Jan-12 14:33N 51°10' E 001°41'1110.8
2017-Jan-12 13:33N 51°18' E 001°52'1110.5
2017-Jan-12 12:33N 51°28' E 002°00'1211.2
2017-Jan-12 11:30N 51°36' E 002°13'5212.0
2017-Jan-12 07:12N 51°60' E 003°28'812.6
2017-Jan-12 06:33N 52°01' E 003°41'8 8.4
2017-Jan-12 05:33N 52°02' E 003°54'10 9.8
2017-Jan-12 04:33N 51°57' E 004°09'3 3.0
2017-Jan-12 03:33N 51°56' E 004°12'0 0.0
2017-Jan-12 02:31N 51°56' E 004°12'0 0.0
2017-Jan-12 01:31N 51°56' E 004°12'0 0.0
2017-Jan-12 00:31N 51°56' E 004°12'0 0.0
2017-Jan-11 23:31N 51°56' E 004°12'0 0.0
2017-Jan-11 22:31N 51°56' E 004°12'0 0.0
2017-Jan-11 21:31N 51°56' E 004°12'0 0.0
2017-Jan-11 20:31N 51°56' E 004°12'0 0.0
2017-Jan-11 19:31N 51°56' E 004°12'0 0.0
2017-Jan-11 18:31N 51°56' E 004°12'0 0.0
2017-Jan-11 17:31N 51°56' E 004°12'0 0.0
2017-Jan-11 16:31N 51°56' E 004°12'0 0.0
2017-Jan-11 15:22N 51°56' E 004°12'0 0.0
2017-Jan-11 14:31N 51°56' E 004°12'0 0.0
2017-Jan-11 13:31N 51°56' E 004°12'0 0.0
2017-Jan-11 12:31N 51°56' E 004°12'0 0.0
2017-Jan-11 11:31N 51°56' E 004°12'0 0.0
2017-Jan-11 10:31N 51°56' E 004°12'0 0.0
2017-Jan-11 09:31N 51°56' E 004°12'0 0.0
2017-Jan-11 08:28N 51°56' E 004°12'0 0.0
2017-Jan-11 07:31N 51°56' E 004°12'0 0.0
2017-Jan-11 06:28N 51°56' E 004°12'0 0.0
2017-Jan-11 05:31N 51°56' E 004°12'0 0.0
2017-Jan-11 04:31N 51°56' E 004°12'0 0.0
2017-Jan-11 03:34N 51°56' E 004°12'0 0.0
2017-Jan-11 02:34N 51°56' E 004°12'0 0.0
2017-Jan-11 01:25N 51°56' E 004°12'0 0.0
2017-Jan-11 00:34N 51°56' E 004°12'0 0.0
2017-Jan-10 23:28N 51°56' E 004°12'0 0.0
2017-Jan-10 22:31N 51°56' E 004°12'0 0.0
2017-Jan-10 21:34N 51°56' E 004°12'0 0.0
2017-Jan-10 20:34N 51°56' E 004°12'0 0.0
2017-Jan-10 19:34N 51°56' E 004°12'0 0.0
2017-Jan-10 18:28N 51°56' E 004°12'0 0.0
2017-Jan-10 17:31N 51°56' E 004°12'0 0.0
2017-Jan-10 16:34N 51°56' E 004°12'0 0.0
2017-Jan-10 15:34N 51°56' E 004°12'0 0.0
2017-Jan-10 14:34N 51°56' E 004°12'0 0.0
2017-Jan-10 13:34N 51°56' E 004°12'0 0.0
2017-Jan-10 12:31N 51°56' E 004°12'0 0.0
2017-Jan-10 11:34N 51°56' E 004°12'  
Track history (hours):
 
Tides and Currents Weather Stations Pressure Air Temp Water Temp Dewpoint Dewpoint Depression Visibility Wind Speed Wind Dir Waves Ship Positions

Seavoyager

Last reported at 2017-Jan-20 11:05 UTC. Time now 2017-Jan-22 06:04 UTC.
Position N 36°08' E 014°50'.

Length 273 m; draft 16.8 m.

Type: Tanker. MMSI: 256439000.

Date/timePositionNaut miles runAvg speedWind from/ knotsBaromVisibWave heightAir tempDewpointWater temp
2017-Jan-20 11:05N 36°08' E 014°50'612.1
2017-Jan-20 10:33N 36°10' E 014°43'1212.2
2017-Jan-20 09:33N 36°15' E 014°28'1212.0
2017-Jan-20 08:33N 36°19' E 014°15'1212.4
2017-Jan-20 07:33N 36°24' E 014°01'1312.7
2017-Jan-20 06:31N 36°29' E 013°45'29112.6
2017-Jan-19 07:33N 37°40' E 007°52'1312.9
2017-Jan-19 06:33N 37°38' E 007°37'1312.7
2017-Jan-19 05:33N 37°35' E 007°21'  
2017-Jan-17 01:29N 36°00' W 005°10'1313.9
2017-Jan-17 00:33N 35°58' W 005°25'1613.0
2017-Jan-16 23:20N 35°55' W 005°44'26511.1
2017-Jan-15 23:33N 38°34' W 010°10'1413.3
2017-Jan-15 22:29N 38°48' W 010°12'  
2017-Jan-13 03:32N 50°09' W 002°04'1515.0
2017-Jan-13 02:33N 50°12' W 001°42'1515.1
2017-Jan-13 01:33N 50°16' W 001°19'3812.4
2017-Jan-12 22:32N 50°26' W 000°22'10 9.8
2017-Jan-12 21:33N 50°28' W 000°07'9 9.1
2017-Jan-12 20:33N 50°31' E 000°06'9 9.5
2017-Jan-12 19:33N 50°34' E 000°21'1211.6
2017-Jan-12 18:33N 50°37' E 000°38'1413.7
2017-Jan-12 17:33N 50°45' E 000°56'1313.5
2017-Jan-12 16:33N 50°53' E 001°14'1312.9
2017-Jan-12 15:33N 51°02' E 001°27'1211.8
2017-Jan-12 14:33N 51°10' E 001°41'1110.8
2017-Jan-12 13:33N 51°18' E 001°52'1110.5
2017-Jan-12 12:33N 51°28' E 002°00'1211.2
2017-Jan-12 11:30N 51°36' E 002°13'5212.0
2017-Jan-12 07:12N 51°60' E 003°28'812.6
2017-Jan-12 06:33N 52°01' E 003°41'8 8.4
2017-Jan-12 05:33N 52°02' E 003°54'10 9.8
2017-Jan-12 04:33N 51°57' E 004°09'3 3.0
2017-Jan-12 03:33N 51°56' E 004°12'0 0.0
2017-Jan-12 02:31N 51°56' E 004°12'0 0.0
2017-Jan-12 01:31N 51°56' E 004°12'0 0.0
2017-Jan-12 00:31N 51°56' E 004°12'0 0.0
2017-Jan-11 23:31N 51°56' E 004°12'0 0.0
2017-Jan-11 22:31N 51°56' E 004°12'0 0.0
2017-Jan-11 21:31N 51°56' E 004°12'0 0.0
2017-Jan-11 20:31N 51°56' E 004°12'0 0.0
2017-Jan-11 19:31N 51°56' E 004°12'0 0.0
2017-Jan-11 18:31N 51°56' E 004°12'0 0.0
2017-Jan-11 17:31N 51°56' E 004°12'0 0.0
2017-Jan-11 16:31N 51°56' E 004°12'0 0.0
2017-Jan-11 15:22N 51°56' E 004°12'0 0.0
2017-Jan-11 14:31N 51°56' E 004°12'0 0.0
2017-Jan-11 13:31N 51°56' E 004°12'0 0.0
2017-Jan-11 12:31N 51°56' E 004°12'0 0.0
2017-Jan-11 11:31N 51°56' E 004°12'0 0.0
2017-Jan-11 10:31N 51°56' E 004°12'0 0.0
2017-Jan-11 09:31N 51°56' E 004°12'0 0.0
2017-Jan-11 08:28N 51°56' E 004°12'0 0.0
2017-Jan-11 07:31N 51°56' E 004°12'0 0.0
2017-Jan-11 06:28N 51°56' E 004°12'0 0.0
2017-Jan-11 05:31N 51°56' E 004°12'0 0.0
2017-Jan-11 04:31N 51°56' E 004°12'0 0.0
2017-Jan-11 03:34N 51°56' E 004°12'0 0.0
2017-Jan-11 02:34N 51°56' E 004°12'0 0.0
2017-Jan-11 01:25N 51°56' E 004°12'0 0.0
2017-Jan-11 00:34N 51°56' E 004°12'0 0.0
2017-Jan-10 23:28N 51°56' E 004°12'0 0.0
2017-Jan-10 22:31N 51°56' E 004°12'0 0.0
2017-Jan-10 21:34N 51°56' E 004°12'0 0.0
2017-Jan-10 20:34N 51°56' E 004°12'0 0.0
2017-Jan-10 19:34N 51°56' E 004°12'0 0.0
2017-Jan-10 18:28N 51°56' E 004°12'0 0.0
2017-Jan-10 17:31N 51°56' E 004°12'0 0.0
2017-Jan-10 16:34N 51°56' E 004°12'0 0.0
2017-Jan-10 15:34N 51°56' E 004°12'0 0.0
2017-Jan-10 14:34N 51°56' E 004°12'0 0.0
2017-Jan-10 13:34N 51°56' E 004°12'0 0.0
2017-Jan-10 12:31N 51°56' E 004°12'0 0.0
2017-Jan-10 11:34N 51°56' E 004°12'  

Dump ship's entire track history